Aviation Digital Data Service (ADDS)

Output produced by METARs form (1536 UTC 03 December 2021)
found at http://www.aviationweather.gov/metar/data/
 
VTSG 031500Z 05004KT 360V080 9999 FEW020 BKN100 24/23 Q1015 NOSIG
VTSG 031400Z 01006KT 330V050 9999 SCT020 BKN100 24/23 Q1015 NOSIG
VTSG 031300Z 02003KT 340V060 9000 FEW020 BKN100 24/24 Q1014 NOSIG
VTSG 031200Z 07005KT 030V090 8000 -RA FEW014 SCT020 BKN080 24/24 Q1013 RETSRA NOSIG
VTSG 031100Z 08005KT 020V130 2000 +TSRA FEW014CB BKN020 OVC100 24/24 Q1012 BECMG TL1130 5000 TSRA
VTSG 031000Z 02007KT 340V060 9999 -RA FEW018CB SCT020 BKN100 29/24 Q1011 NOSIG
VTSG 030900Z VRB07KT 9999 VCSH FEW018CB SCT020 31/24 Q1010 NOSIG
VTSG 030800Z 03007KT 350V080 9999 SCT020 31/24 Q1010 NOSIG
VTSG 030700Z 05006KT 350V110 9999 SCT020 32/23 Q1011 NOSIG
VTSG 030600Z 01009KT 340V060 9999 SCT020 31/23 Q1012 NOSIG
VTSG 030500Z 01008KT 330V070 9999 SCT020 31/24 Q1013 NOSIG
VTSG 030400Z 02009KT 340V060 9999 SCT020 29/24 Q1014 NOSIG
VTSG 030300Z 03005KT 340V080 9999 SCT015 28/25 Q1014 NOSIG
VTSG 030200Z 02005KT 340V070 9999 FEW010 26/24 Q1014 NOSIG
VTSG 030100Z 02005KT 310V080 9999 FEW020 25/23 Q1014 NOSIG
VTSG 030000Z 04005KT 360V070 7000 FEW020 SCT100 23/23 Q1013 NOSIG
VTSG 022300Z 02005KT 340V050 9999 FEW020 SCT100 23/22 Q1012 NOSIG
VTSG 022200Z 02006KT 350V060 9999 FEW020 23/22 Q1012 NOSIG
VTSG 022100Z 04004KT 010V070 8000 FEW020 23/22 Q1012 NOSIG
VTSG 022000Z 04003KT 360V070 9000 FEW020 23/23 Q1012 NOSIG
VTSG 021900Z 05003KT 010V090 9999 FEW020 23/23 Q1012 NOSIG
VTSG 021800Z 06003KT 7000 FEW020 23/23 Q1013 NOSIG
VTSG 021700Z 04004KT 010V070 9999 FEW020 24/23 Q1013 NOSIG
VTSG 021600Z 04003KT 350V080 8000 FEW020 24/23 Q1013 NOSIG
VTSG 021500Z 03005KT 330V070 9999 FEW020 24/24 Q1014 NOSIG
TAF VTSG 031100Z 0312/0412 04006KT 9999 SCT020 
     PROB40 
     TEMPO 0408/0412 04015G25KT 3000 TSRA FEW016CB SCT020 BKN100